• Join FlightAware (Why Join?)
  • Login
  • US Flag 
09:23PM EDT


 

Airport Tracker/Info


-or-


 

Live Flight TrackerFlight Track Log ✈ SWA2009 ✈ 13-Apr-2013 ✈ KSNA - KSJC

Flight Track Log - Related Links

Times and Time Zones

All times are in EDT time to prevent confusion due to time zone crossing. See the SWA2009 flight status page for this flight to view local times or setup timezone preferences in your user account.

Time Position Orientation Groundspeed Altitude Reporting Facility
EDT Latitude Longitude Course Direction KTS MPH feet Rate Location/Type
08:50PM 33.5744 -117.8983 192° South 185 213 4,100  Level Los Angeles Center
08:51PM 33.5125 -117.9356 207° Southwest 241 277 7,400 3,300 Climbing Los Angeles Center
08:52PM 33.4433 -117.9842 210° Southwest 275 316 10,900 3,000 Climbing Los Angeles Center
08:53PM 33.3628 -118.0417 211° Southwest 319 367 13,700 2,820 Climbing Los Angeles Center
08:54PM 33.3898 -118.4282 337° Northwest  Level FlightAware Approximate
08:54PM 33.3375 -118.1522 255° West 358 412 16,800  Level Los Angeles Center
08:55PM 33.3633 -118.2686 285° West 365 420 20,100 2,880 Climbing Los Angeles Center
08:56PM 33.4353 -118.3622 313° West 376 433 22,800 2,520 Climbing Los Angeles Center
08:57PM 33.5108 -118.4611 313° West 388 447 25,300 2,340 Climbing Los Angeles Center
08:58PM 33.5911 -118.5636 313° West 408 470 27,600 2,040 Climbing Los Angeles Center
08:59PM 33.6722 -118.6694 313° West 422 486 29,600 2,160 Climbing Los Angeles Center
09:00PM 33.7722 -118.7967 313° West 430 495 32,100 2,280 Climbing Los Angeles Center
09:01PM 33.8536 -118.9042 312° West 433 498 34,300 1,860 Climbing Los Angeles Center
09:02PM 33.9331 -119.0089 312° West 428 493 36,000 780 Climbing Los Angeles Center
09:03PM 34.0125 -119.1128 313° West 422 486 36,000  Level Los Angeles Center
09:04PM 34.0914 -119.2175 312° West 422 486 36,000  Level Los Angeles Center
09:05PM 34.1700 -119.3203 313° West 419 482 36,000  Level Los Angeles Center
09:06PM 34.2331 -119.4031 313° West 419 482 36,000  Level Los Angeles Center
09:07PM 34.3247 -119.5269 312° West 415 478 36,000  Level Los Angeles Center
09:08PM 34.4169 -119.6506 312° West 412 474 36,000  Level Los Angeles Center
09:09PM 34.4953 -119.7553 312° West 417 480 36,000  Level Los Angeles Center
09:10PM 34.5881 -119.8397 323° Northwest 418 481 36,000  Level Los Angeles Center
09:11PM 34.6778 -119.9100 327° Northwest 422 486 36,000  Level Los Angeles Center
09:12PM 34.7742 -119.9900 326° Northwest 423 487 36,000  Level Los Angeles Center
09:13PM 34.9083 -120.1011 326° Northwest 420 483 36,000  Level Los Angeles Center
09:14PM 35.0031 -120.1811 325° Northwest 419 482 36,000  Level Los Angeles Center
09:16PM 35.0992 -120.2600 326° Northwest 417 480 36,000  Level Los Angeles Center
09:17PM 35.2122 -120.3550 326° Northwest 413 475 36,000  Level Los Angeles Center
09:18PM 35.3053 -120.4344 325° Northwest 412 474 36,000  Level Los Angeles Center
09:19PM 35.3989 -120.5097 327° Northwest 411 473 36,000  Level Oakland Center
09:20PM 35.4925 -120.5878 326° Northwest 407 468 36,000  Level Oakland Center
09:21PM 35.5867 -120.6667 326° Northwest 410 472 36,000  Level Oakland Center
09:22PM 35.6797 -120.7481 325° Northwest 411 473 36,000  Level Oakland Center
09:23PM 35.7733 -120.8256 326° Northwest 407 468 36,000  Level Oakland Center
09:24PM 35.8667 -120.9072 325° Northwest 411 473 36,000 -1,200 Level Oakland Center
09:25PM 35.9603 -120.9878 325° Northwest 410 472 33,700 -2,580 Descending Oakland Center
09:26PM 36.0533 -121.0697 325° Northwest 410 472 30,800 -2,700 Descending Oakland Center
09:27PM 36.1444 -121.1475 325° Northwest 400 460 28,300 -2,460 Descending Oakland Center
09:28PM 36.2328 -121.2250 325° Northwest 387 445 25,900 -2,460 Descending Oakland Center
09:29PM 36.3314 -121.3108 325° Northwest 369 425 23,300 -2,400 Descending Oakland Center
09:30PM 36.4119 -121.3792 326° Northwest 350 403 21,100 -1,740 Descending Oakland Center
09:31PM 36.4881 -121.4464 325° Northwest 335 386 19,800 -1,680 Descending Oakland Center
09:32PM 36.5628 -121.5117 325° Northwest 326 375 17,700 -2,160 Descending Oakland Center
09:33PM 36.6414 -121.5558 336° Northwest 309 356 15,500 -2,100 Descending Oakland Center
09:34PM 36.7322 -121.5536 North 313 360 13,500 -1,980 Descending Oakland Center
09:35PM 36.8175 -121.5561 359° North 308 354 11,500 -1,620 Descending Oakland Center
09:36PM 36.8931 -121.5811 345° North 297 342 10,300 -1,260 Descending Oakland Center
09:37PM 36.9614 -121.6169 337° Northwest 278 320 9,000 -1,380 Descending Oakland Center
09:38PM 37.0258 -121.6492 338° Northwest 256 295 7,500 -1,920 Descending Oakland Center
09:39PM 37.1056 -121.6861 340° North 254 292 5,200 -1,500 Descending Oakland Center
09:40PM 37.1500 -121.7000 346° North 233 268 5,000 -300 Descending Northern Cal TRACON
09:40PM 37.1669 -121.7144 326° Northwest 246 283 4,900 -900 Descending Oakland Center
09:41PM 37.2100 -121.7594 320° Northwest 222 255 3,800 -1,020 Descending Oakland Center
09:42PM 37.2461 -121.8061 314° West 201 231 2,900 -960 Descending Oakland Center
09:43PM 37.2803 -121.8414 321° Northwest 179 206 1,900 -840 Descending Oakland Center
09:44PM 37.3083 -121.8717 319° Northwest 153 176 1,200 -720 Descending Oakland Center
09:45PM 37.3333 -121.8997 318° Northwest 135 155 500 9,240 Descending Oakland Center
09:46PM 37.3603 -121.9275 321° Northwest 128 147 20,000 19,140 Climbing Oakland Center
09:48PM 37.3627 -121.9291 North  Level Estimated